Ana Sayfa
METAR-TAF:

METAR-TAF

Havaalanları :

Tahran, İran

Mehrabad Havalimanı

Enlem: 35-41N, Boylam: 051-21E, yükseklik: 1204 m

Güncel hava durumu gözlemi

Rapor saat 06:00 UTC de 33 dakika önce yapıldı.
Rüzgar batı/kuzeybatıdan 6 kt
Sıcaklık 6°C
Nem 52%
Basınç 1020 hPa
Görüş mesafesi: 6000 m

METAR: OIII 210600Z 30006KT 6000 NSC 06/M03 Q1020 A3012 NOSIG

Saat: 10:03 (06:33 UTC)

Tahmin

Rapor saat 05:50 UTC de 43 dakika önce yapıldı.
Ayın 21'si saat 06 UTC'den ayın 22'si saat 12 UTC'ye kadar geçerli Tahmin
Rüzgar kuzeybatıdan 6 kt
Görüş mesafesi: 8000 m
Geçici
ayın 21'si saat 12 UTC'den ayın 21'si saat 18 UTC'ye kadar
Rüzgar batıdan 16 kt

TAF: OIII 210550Z 2106/2212 32003MPS 8000 NSC TEMPO 2112/2118 26008MPS

4.000'den fazla havaalanı için hava durumu gözlemleri ve tahminleri (METAR ve TAF raporları).

Kullanılabilir istasyonlar harita üzerinde sarı ve kırmızı noktalarla gösterilir.

İstasyonun adını görmek için fareyi noktanın üzerinde gezdirin.

Sonrasında hava gözlem ve tahminlerini görmek için tıklayın.

Haritayı değiştirmek için: yaklaştırmak için siyah artı işaretli yeşil düğmeye ve uzaklaştırmak için de eksi işaretli düğmeye hızla tıklayın; bitişik haritalar için yeşil okları kullanın.


METAR-TAF: